Wetterdaten: Samstag, 24.04.2010
Datum Zeit Temp. A. Feuchte A. Luftdruck Regen Wind Richtung Richtung Sonnenschein UV Solar Windben
24.04.2010 00:00 6,0 C 65 % 1016,9 hPa 0,0 mm 0,0 km/h (0 Bft) N 0 0 min 0 UV-I 0 W/m 0,0 km/h (0 Bft)
24.04.2010 00:10 5,9 C 65 % 1016,9 hPa 0,0 mm 0,0 km/h (0 Bft) N 0 0 min 0 UV-I 0 W/m 0,0 km/h (0 Bft)
24.04.2010 00:20 5,8 C 67 % 1016,9 hPa 0,0 mm 0,0 km/h (0 Bft) N 0 0 min 0 UV-I 0 W/m 0,0 km/h (0 Bft)
24.04.2010 00:30 5,6 C 69 % 1017,0 hPa 0,0 mm 0,0 km/h (0 Bft) N 0 0 min 0 UV-I 0 W/m 0,0 km/h (0 Bft)
24.04.2010 00:40 5,3 C 69 % 1017,1 hPa 0,0 mm 0,0 km/h (0 Bft) N 0 0 min 0 UV-I 0 W/m 0,0 km/h (0 Bft)
24.04.2010 00:50 5,1 C 69 % 1017,1 hPa 0,0 mm 0,0 km/h (0 Bft) N 0 0 min 0 UV-I 0 W/m 0,0 km/h (0 Bft)
24.04.2010 01:00 4,9 C 71 % 1017,0 hPa 0,0 mm 0,0 km/h (0 Bft) N 0 0 min 0 UV-I 0 W/m 0,0 km/h (0 Bft)
24.04.2010 01:10 4,6 C 72 % 1017,0 hPa 0,0 mm 0,0 km/h (0 Bft) N 0 0 min 0 UV-I 0 W/m 0,0 km/h (0 Bft)
24.04.2010 01:20 4,4 C 71 % 1017,0 hPa 0,0 mm 0,0 km/h (0 Bft) N 0 0 min 0 UV-I 0 W/m 0,0 km/h (0 Bft)
24.04.2010 01:30 4,5 C 71 % 1017,1 hPa 0,0 mm 0,0 km/h (0 Bft) N 0 0 min 0 UV-I 0 W/m 0,0 km/h (0 Bft)
24.04.2010 01:40 4,4 C 72 % 1017,0 hPa 0,0 mm 0,0 km/h (0 Bft) N 0 0 min 0 UV-I 0 W/m 0,0 km/h (0 Bft)
24.04.2010 01:50 4,2 C 73 % 1017,1 hPa 0,0 mm 0,0 km/h (0 Bft) N 0 0 min 0 UV-I 0 W/m 0,0 km/h (0 Bft)
24.04.2010 02:00 3,9 C 75 % 1017,0 hPa 0,0 mm 0,0 km/h (0 Bft) N 0 0 min 0 UV-I 0 W/m 0,0 km/h (0 Bft)
24.04.2010 02:10 3,7 C 75 % 1017,0 hPa 0,0 mm 0,0 km/h (0 Bft) N 0 0 min 0 UV-I 0 W/m 0,0 km/h (0 Bft)
24.04.2010 02:20 3,6 C 77 % 1017,1 hPa 0,0 mm 0,0 km/h (0 Bft) N 0 0 min 0 UV-I 0 W/m 0,0 km/h (0 Bft)
24.04.2010 02:30 3,6 C 77 % 1017,1 hPa 0,0 mm 0,0 km/h (0 Bft) N 0 0 min 0 UV-I 0 W/m 0,0 km/h (0 Bft)
24.04.2010 02:40 3,4 C 77 % 1017,1 hPa 0,0 mm 0,0 km/h (0 Bft) N 0 0 min 0 UV-I 0 W/m 0,0 km/h (0 Bft)
24.04.2010 02:50 3,3 C 78 % 1017,2 hPa 0,0 mm 0,0 km/h (0 Bft) N 0 0 min 0 UV-I 0 W/m 0,0 km/h (0 Bft)
24.04.2010 03:00 3,3 C 78 % 1017,2 hPa 0,0 mm 0,0 km/h (0 Bft) N 0 0 min 0 UV-I 0 W/m 0,0 km/h (0 Bft)
24.04.2010 03:10 3,2 C 80 % 1017,2 hPa 0,0 mm 0,0 km/h (0 Bft) N 0 0 min 0 UV-I 0 W/m 0,0 km/h (0 Bft)
24.04.2010 03:20 3,1 C 80 % 1017,2 hPa 0,0 mm 0,0 km/h (0 Bft) N 0 0 min 0 UV-I 0 W/m 0,0 km/h (0 Bft)
24.04.2010 03:30 3,0 C 81 % 1017,3 hPa 0,0 mm 0,0 km/h (0 Bft) N 0 0 min 0 UV-I 0 W/m 0,0 km/h (0 Bft)
24.04.2010 03:40 2,7 C 83 % 1017,4 hPa 0,0 mm 0,0 km/h (0 Bft) N 0 0 min 0 UV-I 0 W/m 0,0 km/h (0 Bft)
24.04.2010 03:50 2,6 C 82 % 1017,3 hPa 0,0 mm 0,0 km/h (0 Bft) N 360 0 min 0 UV-I 0 W/m 1,6 km/h (1 Bft)
24.04.2010 04:00 2,4 C 82 % 1017,3 hPa 0,0 mm 0,0 km/h (0 Bft) N 0 0 min 0 UV-I 0 W/m 0,0 km/h (0 Bft)
24.04.2010 04:10 2,3 C 82 % 1017,4 hPa 0,0 mm 0,0 km/h (0 Bft) N 0 0 min 0 UV-I 0 W/m 0,0 km/h (0 Bft)
24.04.2010 04:20 2,2 C 82 % 1017,4 hPa 0,0 mm 0,0 km/h (0 Bft) N 0 0 min 0 UV-I 0 W/m 0,0 km/h (0 Bft)
24.04.2010 04:30 2,3 C 81 % 1017,6 hPa 0,0 mm 0,0 km/h (0 Bft) N 0 0 min 0 UV-I 0 W/m 0,0 km/h (0 Bft)
24.04.2010 04:40 2,1 C 82 % 1017,7 hPa 0,0 mm 0,0 km/h (0 Bft) N 0 0 min 0 UV-I 0 W/m 0,0 km/h (0 Bft)
24.04.2010 04:50 1,8 C 83 % 1017,6 hPa 0,0 mm 0,0 km/h (0 Bft) N 0 0 min 0 UV-I 0 W/m 0,0 km/h (0 Bft)
24.04.2010 05:00 1,9 C 82 % 1017,7 hPa 0,0 mm 0,0 km/h (0 Bft) N 0 0 min 0 UV-I 0 W/m 0,0 km/h (0 Bft)
24.04.2010 05:10 1,7 C 83 % 1017,7 hPa 0,0 mm 0,0 km/h (0 Bft) N 360 0 min 0 UV-I 0 W/m 1,6 km/h (1 Bft)
24.04.2010 05:20 1,7 C 83 % 1017,7 hPa 0,0 mm 0,0 km/h (0 Bft) N 0 0 min 0 UV-I 0 W/m 0,0 km/h (0 Bft)
24.04.2010 05:30 1,7 C 84 % 1017,8 hPa 0,0 mm 0,0 km/h (0 Bft) N 0 0 min 0 UV-I 0 W/m 0,0 km/h (0 Bft)
24.04.2010 05:40 1,6 C 83 % 1017,8 hPa 0,0 mm 0,0 km/h (0 Bft) N 0 0 min 0 UV-I 0 W/m 0,0 km/h (0 Bft)
24.04.2010 05:50 1,4 C 84 % 1018,0 hPa 0,0 mm 0,0 km/h (0 Bft) N 360 0 min 0 UV-I 0 W/m 1,6 km/h (1 Bft)
24.04.2010 06:00 1,3 C 84 % 1018,0 hPa 0,0 mm 0,0 km/h (0 Bft) N 0 0 min 0 UV-I 0 W/m 0,0 km/h (0 Bft)
24.04.2010 06:10 1,3 C 85 % 1018,2 hPa 0,0 mm 0,0 km/h (0 Bft) N 0 0 min 0 UV-I 0 W/m 0,0 km/h (0 Bft)
24.04.2010 06:20 1,3 C 84 % 1018,2 hPa 0,0 mm 0,0 km/h (0 Bft) N 0 0 min 0 UV-I 5 W/m 0,0 km/h (0 Bft)
24.04.2010 06:30 1,4 C 84 % 1018,2 hPa 0,0 mm 0,0 km/h (0 Bft) N 0 0 min 0 UV-I 11 W/m 0,0 km/h (0 Bft)
24.04.2010 06:40 1,5 C 83 % 1018,3 hPa 0,0 mm 0,0 km/h (0 Bft) N 0 0 min 0 UV-I 16 W/m 0,0 km/h (0 Bft)
24.04.2010 06:50 1,6 C 83 % 1018,5 hPa 0,0 mm 0,0 km/h (0 Bft) N 0 0 min 0 UV-I 28 W/m 0,0 km/h (0 Bft)
24.04.2010 07:00 1,8 C 83 % 1018,6 hPa 0,0 mm 0,0 km/h (0 Bft) N 0 0 min 0 UV-I 39 W/m 0,0 km/h (0 Bft)
24.04.2010 07:10 2,1 C 83 % 1018,8 hPa 0,0 mm 0,0 km/h (0 Bft) N 0 0 min 0 UV-I 49 W/m 0,0 km/h (0 Bft)
24.04.2010 07:20 2,4 C 83 % 1018,8 hPa 0,0 mm 0,0 km/h (0 Bft) N 0 0 min 0 UV-I 74 W/m 0,0 km/h (0 Bft)
24.04.2010 07:30 2,9 C 81 % 1018,9 hPa 0,0 mm 0,0 km/h (0 Bft) N 0 10 min 0 UV-I 123 W/m 0,0 km/h (0 Bft)
24.04.2010 07:40 3,4 C 79 % 1019,0 hPa 0,0 mm 0,0 km/h (0 Bft) N 0 10 min 1 UV-I 149 W/m 0,0 km/h (0 Bft)
24.04.2010 07:50 4,0 C 77 % 1019,1 hPa 0,0 mm 0,0 km/h (0 Bft) N 0 10 min 1 UV-I 176 W/m 0,0 km/h (0 Bft)
24.04.2010 08:00 4,9 C 75 % 1019,2 hPa 0,0 mm 0,6 km/h (0 Bft) N 355 10 min 1 UV-I 195 W/m 3,2 km/h (1 Bft)
24.04.2010 08:10 5,2 C 74 % 1019,3 hPa 0,0 mm 0,0 km/h (0 Bft) N 360 10 min 1 UV-I 223 W/m 1,6 km/h (1 Bft)
24.04.2010 08:20 5,8 C 73 % 1019,4 hPa 0,0 mm 0,0 km/h (0 Bft) N 360 10 min 1 UV-I 253 W/m 1,6 km/h (1 Bft)
24.04.2010 08:30 6,4 C 70 % 1019,4 hPa 0,0 mm 0,0 km/h (0 Bft) N 360 10 min 1 UV-I 285 W/m 1,6 km/h (1 Bft)
24.04.2010 08:40 6,9 C 69 % 1019,3 hPa 0,0 mm 0,0 km/h (0 Bft) N 360 10 min 1 UV-I 316 W/m 1,6 km/h (1 Bft)
24.04.2010 08:50 7,6 C 66 % 1019,3 hPa 0,0 mm 0,0 km/h (0 Bft) N 360 10 min 1 UV-I 323 W/m 1,6 km/h (1 Bft)
24.04.2010 09:00 8,2 C 63 % 1019,4 hPa 0,0 mm 0,0 km/h (0 Bft) N 360 10 min 1 UV-I 350 W/m 1,6 km/h (1 Bft)
24.04.2010 09:10 8,8 C 62 % 1019,4 hPa 0,0 mm 0,0 km/h (0 Bft) N 360 10 min 2 UV-I 378 W/m 3,2 km/h (1 Bft)
24.04.2010 09:20 9,6 C 59 % 1019,4 hPa 0,0 mm 0,0 km/h (0 Bft) N-NO 22 10 min 2 UV-I 427 W/m 1,6 km/h (1 Bft)
24.04.2010 09:30 10,7 C 57 % 1019,5 hPa 0,0 mm 1,6 km/h (1 Bft) NO 45 10 min 2 UV-I 457 W/m 4,8 km/h (1 Bft)
24.04.2010 09:40 11,7 C 55 % 1019,5 hPa 0,0 mm 1,6 km/h (1 Bft) O 90 10 min 2 UV-I 482 W/m 6,4 km/h (2 Bft)
24.04.2010 09:50 12,4 C 55 % 1019,5 hPa 0,0 mm 1,6 km/h (1 Bft) O-SO 112 10 min 2 UV-I 501 W/m 6,4 km/h (2 Bft)
24.04.2010 10:00 12,7 C 52 % 1019,4 hPa 0,0 mm 1,6 km/h (1 Bft) O 90 10 min 3 UV-I 541 W/m 4,8 km/h (1 Bft)
24.04.2010 10:10 13,3 C 50 % 1019,5 hPa 0,0 mm 1,6 km/h (1 Bft) O-SO 112 10 min 3 UV-I 571 W/m 8,0 km/h (2 Bft)
24.04.2010 10:20 14,0 C 47 % 1019,4 hPa 0,0 mm 1,6 km/h (1 Bft) O-SO 112 10 min 3 UV-I 599 W/m 8,0 km/h (2 Bft)
24.04.2010 10:30 14,6 C 47 % 1019,4 hPa 0,0 mm 3,2 km/h (1 Bft) O-SO 112 10 min 3 UV-I 633 W/m 8,0 km/h (2 Bft)
24.04.2010 10:40 14,9 C 46 % 1019,6 hPa 0,0 mm 1,6 km/h (1 Bft) O-SO 112 10 min 3 UV-I 615 W/m 8,0 km/h (2 Bft)
24.04.2010 10:50 15,0 C 44 % 1019,6 hPa 0,0 mm 3,2 km/h (1 Bft) O 90 10 min 3 UV-I 628 W/m 9,7 km/h (2 Bft)
24.04.2010 11:00 15,1 C 44 % 1019,6 hPa 0,0 mm 1,6 km/h (1 Bft) O 90 10 min 4 UV-I 643 W/m 8,0 km/h (2 Bft)
24.04.2010 11:10 15,7 C 44 % 1019,6 hPa 0,0 mm 3,2 km/h (1 Bft) O 90 10 min 4 UV-I 661 W/m 9,7 km/h (2 Bft)
24.04.2010 11:20 16,2 C 42 % 1019,8 hPa 0,0 mm 3,2 km/h (1 Bft) O 90 10 min 4 UV-I 721 W/m 9,7 km/h (2 Bft)
24.04.2010 11:30 16,5 C 41 % 1019,8 hPa 0,0 mm 3,2 km/h (1 Bft) O 90 10 min 4 UV-I 737 W/m 11,3 km/h (2 Bft)
24.04.2010 11:40 16,2 C 41 % 1019,7 hPa 0,0 mm 1,6 km/h (1 Bft) O 90 10 min 4 UV-I 710 W/m 8,0 km/h (2 Bft)
24.04.2010 11:50 16,8 C 40 % 1019,8 hPa 0,0 mm 3,2 km/h (1 Bft) O 90 10 min 5 UV-I 782 W/m 9,7 km/h (2 Bft)
24.04.2010 12:00 17,2 C 38 % 1018,9 hPa 0,0 mm 3,2 km/h (1 Bft) O 90 10 min 5 UV-I 793 W/m 11,3 km/h (2 Bft)
24.04.2010 12:10 17,3 C 40 % 1019,7 hPa 0,0 mm 1,6 km/h (1 Bft) O 90 10 min 5 UV-I 802 W/m 6,4 km/h (2 Bft)
24.04.2010 12:20 17,4 C 38 % 1019,7 hPa 0,0 mm 3,2 km/h (1 Bft) O 90 10 min 5 UV-I 816 W/m 9,7 km/h (2 Bft)
24.04.2010 12:30 18,1 C 38 % 1019,1 hPa 0,0 mm 1,6 km/h (1 Bft) O 90 10 min 5 UV-I 851 W/m 9,7 km/h (2 Bft)
24.04.2010 12:40 18,4 C 37 % 1019,1 hPa 0,0 mm 3,2 km/h (1 Bft) O 90 10 min 5 UV-I 865 W/m 11,3 km/h (2 Bft)
24.04.2010 12:50 18,1 C 36 % 1019,5 hPa 0,0 mm 3,2 km/h (1 Bft) N-NO 22 10 min 6 UV-I 877 W/m 11,3 km/h (2 Bft)
24.04.2010 13:00 18,4 C 38 % 1019,6 hPa 0,0 mm 4,8 km/h (1 Bft) O 90 10 min 5 UV-I 867 W/m 9,7 km/h (2 Bft)
24.04.2010 13:10 18,4 C 37 % 1019,6 hPa 0,0 mm 1,6 km/h (1 Bft) O-NO 67 10 min 6 UV-I 879 W/m 8,0 km/h (2 Bft)
24.04.2010 13:20 18,5 C 37 % 1019,5 hPa 0,0 mm 3,2 km/h (1 Bft) N-NO 22 10 min 5 UV-I 868 W/m 8,0 km/h (2 Bft)
24.04.2010 13:30 19,1 C 35 % 1019,5 hPa 0,0 mm 1,6 km/h (1 Bft) O-SO 112 10 min 5 UV-I 856 W/m 9,7 km/h (2 Bft)
24.04.2010 13:40 19,2 C 32 % 1018,0 hPa 0,0 mm 1,6 km/h (1 Bft) O-SO 112 10 min 5 UV-I 877 W/m 8,0 km/h (2 Bft)
24.04.2010 13:50 18,7 C 36 % 1018,0 hPa 0,0 mm 1,6 km/h (1 Bft) N-NW 337 10 min 5 UV-I 853 W/m 6,4 km/h (2 Bft)
24.04.2010 14:00 18,4 C 35 % 1019,0 hPa 0,0 mm 1,6 km/h (1 Bft) N 360 10 min 5 UV-I 809 W/m 8,0 km/h (2 Bft)
24.04.2010 14:10 19,0 C 33 % 1019,0 hPa 0,0 mm 1,6 km/h (1 Bft) O 90 10 min 5 UV-I 868 W/m 6,4 km/h (2 Bft)
24.04.2010 14:20 19,3 C 33 % 1019,4 hPa 0,0 mm 1,6 km/h (1 Bft) N-NO 22 10 min 5 UV-I 853 W/m 8,0 km/h (2 Bft)
24.04.2010 14:30 19,9 C 30 % 1017,7 hPa 0,0 mm 1,6 km/h (1 Bft) O-NO 67 10 min 5 UV-I 793 W/m 6,4 km/h (2 Bft)
24.04.2010 14:40 19,1 C 30 % 1017,7 hPa 0,0 mm 1,6 km/h (1 Bft) NW 315 10 min 5 UV-I 805 W/m 6,4 km/h (2 Bft)
24.04.2010 14:50 19,2 C 31 % 1019,0 hPa 0,0 mm 1,6 km/h (1 Bft) N-NW 337 10 min 5 UV-I 786 W/m 6,4 km/h (2 Bft)
24.04.2010 15:00 19,6 C 26 % 1018,6 hPa 0,0 mm 3,2 km/h (1 Bft) N-NO 22 10 min 5 UV-I 765 W/m 8,0 km/h (2 Bft)
24.04.2010 15:10 19,6 C 23 % 1018,6 hPa 0,0 mm 1,6 km/h (1 Bft) N-NW 337 10 min 4 UV-I 754 W/m 6,4 km/h (2 Bft)
24.04.2010 15:20 19,9 C 24 % 1017,8 hPa 0,0 mm 1,6 km/h (1 Bft) N 360 10 min 4 UV-I 795 W/m 4,8 km/h (1 Bft)
24.04.2010 15:30 19,9 C 27 % 1016,9 hPa 0,0 mm 1,6 km/h (1 Bft) NW 315 10 min 4 UV-I 728 W/m 8,0 km/h (2 Bft)
24.04.2010 15:40 20,3 C 24 % 1018,6 hPa 0,0 mm 1,6 km/h (1 Bft) O-NO 67 10 min 4 UV-I 752 W/m 4,8 km/h (1 Bft)
24.04.2010 15:50 20,4 C 26 % 1016,8 hPa 0,0 mm 0,0 km/h (0 Bft) W 270 10 min 4 UV-I 698 W/m 4,8 km/h (1 Bft)
24.04.2010 16:00 20,9 C 24 % 1019,4 hPa 0,0 mm 2,3 km/h (1 Bft) W 272 10 min 3 UV-I 646 W/m 8,0 km/h (2 Bft)
24.04.2010 16:10 20,6 C 26 % 1017,6 hPa 0,0 mm 1,6 km/h (1 Bft) N 360 10 min 3 UV-I 633 W/m 6,4 km/h (2 Bft)
24.04.2010 16:20 20,4 C 27 % 1018,5 hPa 0,0 mm 1,6 km/h (1 Bft) W 270 10 min 3 UV-I 631 W/m 6,4 km/h (2 Bft)
24.04.2010 16:30 20,2 C 26 % 1017,5 hPa 0,0 mm 1,6 km/h (1 Bft) W-NW 292 10 min 3 UV-I 538 W/m 6,4 km/h (2 Bft)
24.04.2010 16:40 20,1 C 26 % 1018,8 hPa 0,0 mm 1,6 km/h (1 Bft) W-NW 292 10 min 3 UV-I 592 W/m 6,4 km/h (2 Bft)
24.04.2010 16:50 20,4 C 26 % 1018,9 hPa 0,0 mm 1,6 km/h (1 Bft) W 270 10 min 2 UV-I 564 W/m 6,4 km/h (2 Bft)
24.04.2010 17:00 20,3 C 26 % 1018,9 hPa 0,0 mm 1,6 km/h (1 Bft) NW 315 10 min 2 UV-I 529 W/m 4,8 km/h (1 Bft)
24.04.2010 17:10 20,4 C 27 % 1019,3 hPa 0,0 mm 3,2 km/h (1 Bft) W-SW 247 10 min 2 UV-I 538 W/m 9,7 km/h (2 Bft)
24.04.2010 17:20 20,8 C 27 % 1017,9 hPa 0,0 mm 1,6 km/h (1 Bft) N-NW 337 10 min 2 UV-I 508 W/m 6,4 km/h (2 Bft)
24.04.2010 17:30 20,9 C 27 % 1018,7 hPa 0,0 mm 1,6 km/h (1 Bft) N-NO 22 10 min 2 UV-I 462 W/m 6,4 km/h (2 Bft)
24.04.2010 17:40 20,6 C 27 % 1019,1 hPa 0,0 mm 1,6 km/h (1 Bft) NW 315 10 min 2 UV-I 452 W/m 4,8 km/h (1 Bft)
24.04.2010 17:50 20,8 C 28 % 1019,2 hPa 0,0 mm 0,0 km/h (0 Bft) NW 315 10 min 1 UV-I 357 W/m 3,2 km/h (1 Bft)
24.04.2010 18:00 20,2 C 28 % 1019,2 hPa 0,0 mm 0,0 km/h (0 Bft) NW 315 10 min 1 UV-I 302 W/m 3,2 km/h (1 Bft)
24.04.2010 18:10 19,9 C 29 % 1019,2 hPa 0,0 mm 0,0 km/h (0 Bft) NW 315 10 min 1 UV-I 330 W/m 3,2 km/h (1 Bft)
24.04.2010 18:20 20,0 C 27 % 1019,2 hPa 0,0 mm 0,0 km/h (0 Bft) NW 315 10 min 1 UV-I 322 W/m 4,8 km/h (1 Bft)
24.04.2010 18:30 20,1 C 28 % 1019,2 hPa 0,0 mm 0,0 km/h (0 Bft) NW 315 10 min 1 UV-I 271 W/m 1,6 km/h (1 Bft)
24.04.2010 18:40 19,9 C 27 % 1019,2 hPa 0,0 mm 0,0 km/h (0 Bft) NW 315 10 min 1 UV-I 283 W/m 4,8 km/h (1 Bft)
24.04.2010 18:50 20,2 C 31 % 1019,2 hPa 0,0 mm 0,0 km/h (0 Bft) NW 315 10 min 1 UV-I 246 W/m 1,6 km/h (1 Bft)
24.04.2010 19:00 20,1 C 29 % 1019,2 hPa 0,0 mm 0,0 km/h (0 Bft) NW 315 10 min 1 UV-I 179 W/m 3,2 km/h (1 Bft)
24.04.2010 19:10 19,8 C 32 % 1019,2 hPa 0,0 mm 0,0 km/h (0 Bft) NW 315 10 min 1 UV-I 146 W/m 6,4 km/h (2 Bft)
24.04.2010 19:20 19,4 C 33 % 1019,2 hPa 0,0 mm 3,2 km/h (1 Bft) O 90 10 min 0 UV-I 137 W/m 8,0 km/h (2 Bft)
24.04.2010 19:30 18,9 C 35 % 1019,3 hPa 0,0 mm 1,6 km/h (1 Bft) O 90 10 min 0 UV-I 91 W/m 8,0 km/h (2 Bft)
24.04.2010 19:40 18,4 C 37 % 1019,4 hPa 0,0 mm 3,2 km/h (1 Bft) O 90 10 min 0 UV-I 74 W/m 11,3 km/h (2 Bft)
24.04.2010 19:50 17,9 C 38 % 1019,5 hPa 0,0 mm 3,2 km/h (1 Bft) O 90 0 min 0 UV-I 53 W/m 9,7 km/h (2 Bft)
24.04.2010 20:00 17,5 C 40 % 1019,5 hPa 0,0 mm 1,6 km/h (1 Bft) O-NO 67 0 min 0 UV-I 40 W/m 6,4 km/h (2 Bft)
24.04.2010 20:10 17,1 C 41 % 1019,6 hPa 0,0 mm 1,6 km/h (1 Bft) O 90 0 min 0 UV-I 28 W/m 6,4 km/h (2 Bft)
24.04.2010 20:20 16,7 C 42 % 1019,6 hPa 0,0 mm 3,2 km/h (1 Bft) O 90 10 min 0 UV-I 19 W/m 9,7 km/h (2 Bft)
24.04.2010 20:30 16,3 C 44 % 1019,7 hPa 0,0 mm 1,6 km/h (1 Bft) O 90 0 min 0 UV-I 9 W/m 8,0 km/h (2 Bft)
24.04.2010 20:40 15,8 C 45 % 1019,9 hPa 0,0 mm 1,6 km/h (1 Bft) O 90 0 min 0 UV-I 0 W/m 4,8 km/h (1 Bft)
24.04.2010 20:50 15,4 C 46 % 1020,0 hPa 0,0 mm 1,6 km/h (1 Bft) O 90 0 min 0 UV-I 0 W/m 8,0 km/h (2 Bft)
24.04.2010 21:00 15,1 C 46 % 1020,1 hPa 0,0 mm 3,2 km/h (1 Bft) O 90 0 min 0 UV-I 0 W/m 9,7 km/h (2 Bft)
24.04.2010 21:10 14,9 C 47 % 1020,0 hPa 0,0 mm 1,6 km/h (1 Bft) O-NO 67 0 min 0 UV-I 0 W/m 9,7 km/h (2 Bft)
24.04.2010 21:20 14,6 C 49 % 1020,3 hPa 0,0 mm 1,6 km/h (1 Bft) O-NO 67 0 min 0 UV-I 0 W/m 8,0 km/h (2 Bft)
24.04.2010 21:30 14,1 C 50 % 1020,4 hPa 0,0 mm 1,6 km/h (1 Bft) O-NO 67 0 min 0 UV-I 0 W/m 4,8 km/h (1 Bft)
24.04.2010 21:40 13,8 C 50 % 1020,5 hPa 0,0 mm 1,6 km/h (1 Bft) O 90 0 min 0 UV-I 0 W/m 6,4 km/h (2 Bft)
24.04.2010 21:50 13,6 C 51 % 1020,6 hPa 0,0 mm 1,6 km/h (1 Bft) O 90 0 min 0 UV-I 0 W/m 6,4 km/h (2 Bft)
24.04.2010 22:00 13,4 C 52 % 1020,6 hPa 0,0 mm 3,2 km/h (1 Bft) O 90 0 min 0 UV-I 0 W/m 8,0 km/h (2 Bft)
24.04.2010 22:10 13,5 C 52 % 1020,7 hPa 0,0 mm 1,6 km/h (1 Bft) O 90 0 min 0 UV-I 0 W/m 6,4 km/h (2 Bft)
24.04.2010 22:20 13,4 C 52 % 1020,7 hPa 0,0 mm 3,2 km/h (1 Bft) O 90 0 min 0 UV-I 0 W/m 14,5 km/h (3 Bft)
24.04.2010 22:30 13,3 C 53 % 1020,7 hPa 0,0 mm 3,2 km/h (1 Bft) O 90 0 min 0 UV-I 0 W/m 9,7 km/h (2 Bft)
24.04.2010 22:40 13,2 C 53 % 1020,8 hPa 0,0 mm 1,6 km/h (1 Bft) O 90 0 min 0 UV-I 0 W/m 6,4 km/h (2 Bft)
24.04.2010 22:50 13,0 C 54 % 1020,8 hPa 0,0 mm 1,6 km/h (1 Bft) O 90 0 min 0 UV-I 0 W/m 6,4 km/h (2 Bft)
24.04.2010 23:00 12,7 C 55 % 1020,8 hPa 0,0 mm 1,6 km/h (1 Bft) O 90 0 min 0 UV-I 0 W/m 6,4 km/h (2 Bft)
24.04.2010 23:10 12,5 C 55 % 1020,8 hPa 0,0 mm 0,0 km/h (0 Bft) O-SO 112 0 min 0 UV-I 0 W/m 1,6 km/h (1 Bft)
24.04.2010 23:20 12,2 C 56 % 1020,8 hPa 0,0 mm 0,0 km/h (0 Bft) N 0 0 min 0 UV-I 0 W/m 0,0 km/h (0 Bft)
24.04.2010 23:30 11,8 C 58 % 1020,9 hPa 0,0 mm 0,0 km/h (0 Bft) O-SO 112 0 min 0 UV-I 0 W/m 1,6 km/h (1 Bft)
24.04.2010 23:40 11,5 C 59 % 1020,9 hPa 0,0 mm 0,0 km/h (0 Bft) N 0 0 min 0 UV-I 0 W/m 0,0 km/h (0 Bft)
24.04.2010 23:50 11,2 C 60 % 1020,8 hPa 0,0 mm 0,0 km/h (0 Bft) O-SO 112 0 min 0 UV-I 0 W/m 1,6 km/h (1 Bft)
_ Min-Zeit 06:10 15:10 15:50 - 00:00 - - - - - 00:00
Minimum _ 1,2 C 23 % 1016,8 hPa - 0,0 km/h (0 Bft) - - - - - 0,0 km/h (0 Bft)
_ Max-Zeit 17:20 06:10 23:30 00:00 13:00 - - 07:30 12:50 13:10 22:20
Maximum _ 21,3 C 85 % 1020,9 hPa 0,0 mm 4,8 km/h
O (1 Bft)
- - 10 min 6 UV-I 879 W/m 14,5 km/h
SO (3 Bft)
Durchschnitt _ 11,8 C 54 % 1018,8 hPa #0,0 mm 1,1 km/h (0 Bft) O - #12:30 h 3 UV-I 480 W/m 4,3 km/h (1 Bft)